sensor_id;sensor_type;location;lat;lon;timestamp;P1;durP1;ratioP1;P2;durP2;ratioP2
71503;SDS011;59323;50.874;7.028;2023-03-13T00:02:06;16.97;;;2.33;;
71503;SDS011;59323;50.874;7.028;2023-03-13T00:04:32;13.18;;;1.65;;
71503;SDS011;59323;50.874;7.028;2023-03-13T00:06:57;14.47;;;2.20;;
71503;SDS011;59323;50.874;7.028;2023-03-13T00:09:22;15.57;;;2.47;;
71503;SDS011;59323;50.874;7.028;2023-03-13T00:11:48;14.23;;;1.90;;
71503;SDS011;59323;50.874;7.028;2023-03-13T00:14:13;17.93;;;2.37;;
71503;SDS011;59323;50.874;7.028;2023-03-13T00:16:38;15.80;;;2.03;;
71503;SDS011;59323;50.874;7.028;2023-03-13T00:19:04;19.50;;;2.78;;
71503;SDS011;59323;50.874;7.028;2023-03-13T00:21:31;14.17;;;1.80;;
71503;SDS011;59323;50.874;7.028;2023-03-13T00:23:57;20.60;;;2.13;;
71503;SDS011;59323;50.874;7.028;2023-03-13T00:26:25;14.52;;;2.13;;
71503;SDS011;59323;50.874;7.028;2023-03-13T00:28:51;14.02;;;2.15;;
71503;SDS011;59323;50.874;7.028;2023-03-13T00:31:21;14.00;;;2.07;;
71503;SDS011;59323;50.874;7.028;2023-03-13T00:33:49;10.02;;;1.60;;
71503;SDS011;59323;50.874;7.028;2023-03-13T00:39:11;13.10;;;1.80;;
71503;SDS011;59323;50.874;7.028;2023-03-13T00:41:36;13.07;;;1.60;;
71503;SDS011;59323;50.874;7.028;2023-03-13T00:44:02;15.20;;;2.13;;
71503;SDS011;59323;50.874;7.028;2023-03-13T00:46:30;14.40;;;2.22;;
71503;SDS011;59323;50.874;7.028;2023-03-13T00:48:56;13.63;;;2.00;;
71503;SDS011;59323;50.874;7.028;2023-03-13T00:51:22;15.70;;;2.13;;
71503;SDS011;59323;50.874;7.028;2023-03-13T00:53:48;14.93;;;2.17;;
71503;SDS011;59323;50.874;7.028;2023-03-13T00:56:14;15.50;;;1.97;;
71503;SDS011;59323;50.874;7.028;2023-03-13T00:58:42;10.75;;;2.47;;
71503;SDS011;59323;50.874;7.028;2023-03-13T01:01:09;14.93;;;2.30;;
71503;SDS011;59323;50.874;7.028;2023-03-13T01:03:36;12.77;;;1.90;;
71503;SDS011;59323;50.874;7.028;2023-03-13T01:06:03;15.98;;;2.22;;
71503;SDS011;59323;50.874;7.028;2023-03-13T01:08:30;16.80;;;2.03;;
71503;SDS011;59323;50.874;7.028;2023-03-13T01:11:04;12.07;;;1.55;;
71503;SDS011;59323;50.874;7.028;2023-03-13T01:13:31;16.17;;;2.07;;
71503;SDS011;59323;50.874;7.028;2023-03-13T01:16:03;12.98;;;1.63;;
71503;SDS011;59323;50.874;7.028;2023-03-13T01:18:30;14.40;;;2.10;;
71503;SDS011;59323;50.874;7.028;2023-03-13T01:20:55;12.27;;;1.98;;
71503;SDS011;59323;50.874;7.028;2023-03-13T01:23:21;12.37;;;1.73;;
71503;SDS011;59323;50.874;7.028;2023-03-13T01:25:47;11.90;;;2.60;;
71503;SDS011;59323;50.874;7.028;2023-03-13T01:28:12;16.30;;;2.17;;
71503;SDS011;59323;50.874;7.028;2023-03-13T01:30:37;12.23;;;1.90;;
71503;SDS011;59323;50.874;7.028;2023-03-13T01:33:02;14.00;;;2.20;;
71503;SDS011;59323;50.874;7.028;2023-03-13T01:35:28;15.13;;;2.10;;
71503;SDS011;59323;50.874;7.028;2023-03-13T01:37:53;14.80;;;2.13;;
71503;SDS011;59323;50.874;7.028;2023-03-13T01:40:18;11.30;;;1.80;;
71503;SDS011;59323;50.874;7.028;2023-03-13T01:42:48;15.27;;;2.40;;
71503;SDS011;59323;50.874;7.028;2023-03-13T01:54:21;6.60;;;1.40;;
71503;SDS011;59323;50.874;7.028;2023-03-13T01:56:51;7.15;;;1.65;;
71503;SDS011;59323;50.874;7.028;2023-03-13T01:59:24;11.83;;;1.63;;
71503;SDS011;59323;50.874;7.028;2023-03-13T02:01:55;6.55;;;1.48;;
71503;SDS011;59323;50.874;7.028;2023-03-13T02:04:23;11.73;;;2.58;;
71503;SDS011;59323;50.874;7.028;2023-03-13T02:06:51;10.07;;;1.80;;
71503;SDS011;59323;50.874;7.028;2023-03-13T02:09:21;15.85;;;1.92;;
71503;SDS011;59323;50.874;7.028;2023-03-13T02:14:53;7.47;;;1.40;;
71503;SDS011;59323;50.874;7.028;2023-03-13T02:17:21;13.50;;;2.00;;
71503;SDS011;59323;50.874;7.028;2023-03-13T02:19:48;7.75;;;1.35;;
71503;SDS011;59323;50.874;7.028;2023-03-13T02:27:30;9.65;;;1.35;;
71503;SDS011;59323;50.874;7.028;2023-03-13T02:29:56;11.90;;;1.50;;
71503;SDS011;59323;50.874;7.028;2023-03-13T02:32:23;8.25;;;1.67;;
71503;SDS011;59323;50.874;7.028;2023-03-13T02:34:50;11.40;;;1.70;;
71503;SDS011;59323;50.874;7.028;2023-03-13T02:37:20;8.02;;;1.20;;
71503;SDS011;59323;50.874;7.028;2023-03-13T02:39:47;12.30;;;1.40;;
71503;SDS011;59323;50.874;7.028;2023-03-13T02:42:16;9.70;;;1.27;;
71503;SDS011;59323;50.874;7.028;2023-03-13T02:44:44;5.40;;;1.20;;
71503;SDS011;59323;50.874;7.028;2023-03-13T02:47:10;5.53;;;1.30;;
71503;SDS011;59323;50.874;7.028;2023-03-13T02:49:36;8.32;;;1.58;;
71503;SDS011;59323;50.874;7.028;2023-03-13T02:52:21;10.97;;;1.60;;
71503;SDS011;59323;50.874;7.028;2023-03-13T02:54:50;9.95;;;1.23;;
71503;SDS011;59323;50.874;7.028;2023-03-13T02:57:19;4.57;;;1.20;;
71503;SDS011;59323;50.874;7.028;2023-03-13T02:59:44;4.60;;;1.10;;
71503;SDS011;59323;50.874;7.028;2023-03-13T03:02:09;7.50;;;1.30;;
71503;SDS011;59323;50.874;7.028;2023-03-13T03:04:35;6.40;;;1.17;;
71503;SDS011;59323;50.874;7.028;2023-03-13T03:07:00;4.20;;;0.83;;
71503;SDS011;59323;50.874;7.028;2023-03-13T03:09:25;5.10;;;0.70;;
71503;SDS011;59323;50.874;7.028;2023-03-13T03:11:51;4.80;;;0.97;;
71503;SDS011;59323;50.874;7.028;2023-03-13T03:14:16;3.50;;;0.90;;
71503;SDS011;59323;50.874;7.028;2023-03-13T03:16:41;6.73;;;1.20;;
71503;SDS011;59323;50.874;7.028;2023-03-13T03:19:07;5.37;;;1.00;;
71503;SDS011;59323;50.874;7.028;2023-03-13T03:21:33;2.90;;;0.77;;
71503;SDS011;59323;50.874;7.028;2023-03-13T03:23:59;2.70;;;0.60;;
71503;SDS011;59323;50.874;7.028;2023-03-13T03:26:24;3.15;;;0.70;;
71503;SDS011;59323;50.874;7.028;2023-03-13T03:28:50;2.80;;;0.80;;
71503;SDS011;59323;50.874;7.028;2023-03-13T03:31:16;3.85;;;0.55;;
71503;SDS011;59323;50.874;7.028;2023-03-13T03:33:42;3.87;;;0.63;;
71503;SDS011;59323;50.874;7.028;2023-03-13T03:36:09;5.60;;;0.73;;
71503;SDS011;59323;50.874;7.028;2023-03-13T03:38:40;5.05;;;0.80;;
71503;SDS011;59323;50.874;7.028;2023-03-13T03:41:06;3.28;;;0.85;;
71503;SDS011;59323;50.874;7.028;2023-03-13T03:43:33;3.50;;;0.50;;
71503;SDS011;59323;50.874;7.028;2023-03-13T03:45:59;3.20;;;0.57;;
71503;SDS011;59323;50.874;7.028;2023-03-13T03:48:27;2.60;;;0.60;;
71503;SDS011;59323;50.874;7.028;2023-03-13T03:50:53;3.55;;;0.70;;
71503;SDS011;59323;50.874;7.028;2023-03-13T03:53:18;3.03;;;0.60;;
71503;SDS011;59323;50.874;7.028;2023-03-13T03:55:44;2.47;;;0.60;;
71503;SDS011;59323;50.874;7.028;2023-03-13T03:58:09;2.13;;;0.67;;
71503;SDS011;59323;50.874;7.028;2023-03-13T04:00:38;1.33;;;0.40;;
71503;SDS011;59323;50.874;7.028;2023-03-13T04:03:06;2.58;;;0.70;;
71503;SDS011;59323;50.874;7.028;2023-03-13T04:05:32;1.60;;;0.50;;
71503;SDS011;59323;50.874;7.028;2023-03-13T04:07:57;1.27;;;0.50;;
71503;SDS011;59323;50.874;7.028;2023-03-13T04:10:22;2.30;;;0.55;;
71503;SDS011;59323;50.874;7.028;2023-03-13T04:12:48;2.93;;;0.70;;
71503;SDS011;59323;50.874;7.028;2023-03-13T04:15:13;0.73;;;0.43;;
71503;SDS011;59323;50.874;7.028;2023-03-13T04:17:38;2.07;;;0.70;;
71503;SDS011;59323;50.874;7.028;2023-03-13T04:20:04;1.23;;;0.50;;
71503;SDS011;59323;50.874;7.028;2023-03-13T04:22:30;1.52;;;0.45;;
71503;SDS011;59323;50.874;7.028;2023-03-13T04:24:56;1.00;;;0.40;;
71503;SDS011;59323;50.874;7.028;2023-03-13T04:27:21;3.50;;;0.70;;
71503;SDS011;59323;50.874;7.028;2023-03-13T04:29:46;2.70;;;0.63;;
71503;SDS011;59323;50.874;7.028;2023-03-13T04:32:12;1.63;;;0.30;;
71503;SDS011;59323;50.874;7.028;2023-03-13T04:34:37;1.40;;;0.30;;
71503;SDS011;59323;50.874;7.028;2023-03-13T04:37:02;2.97;;;0.53;;
71503;SDS011;59323;50.874;7.028;2023-03-13T04:39:28;1.13;;;0.40;;
71503;SDS011;59323;50.874;7.028;2023-03-13T04:41:53;1.40;;;0.60;;
71503;SDS011;59323;50.874;7.028;2023-03-13T04:44:20;1.95;;;0.40;;
71503;SDS011;59323;50.874;7.028;2023-03-13T04:46:46;1.08;;;0.32;;
71503;SDS011;59323;50.874;7.028;2023-03-13T04:49:12;0.87;;;0.47;;
71503;SDS011;59323;50.874;7.028;2023-03-13T04:51:38;2.15;;;0.40;;
71503;SDS011;59323;50.874;7.028;2023-03-13T04:54:04;1.67;;;0.60;;
71503;SDS011;59323;50.874;7.028;2023-03-13T04:56:29;1.27;;;0.47;;
71503;SDS011;59323;50.874;7.028;2023-03-13T04:58:55;2.17;;;1.10;;
71503;SDS011;59323;50.874;7.028;2023-03-13T05:01:20;0.93;;;0.40;;
71503;SDS011;59323;50.874;7.028;2023-03-13T05:03:45;1.05;;;0.60;;
71503;SDS011;59323;50.874;7.028;2023-03-13T05:06:11;1.07;;;0.40;;
71503;SDS011;59323;50.874;7.028;2023-03-13T05:08:37;1.00;;;0.40;;
71503;SDS011;59323;50.874;7.028;2023-03-13T05:11:02;1.30;;;0.40;;
71503;SDS011;59323;50.874;7.028;2023-03-13T05:13:29;0.93;;;0.30;;
71503;SDS011;59323;50.874;7.028;2023-03-13T05:15:54;0.50;;;0.40;;
71503;SDS011;59323;50.874;7.028;2023-03-13T05:18:20;1.07;;;0.60;;
71503;SDS011;59323;50.874;7.028;2023-03-13T05:20:45;1.00;;;0.45;;
71503;SDS011;59323;50.874;7.028;2023-03-13T05:23:10;0.90;;;0.57;;
71503;SDS011;59323;50.874;7.028;2023-03-13T05:25:36;0.90;;;0.50;;
71503;SDS011;59323;50.874;7.028;2023-03-13T05:28:01;1.50;;;0.40;;
71503;SDS011;59323;50.874;7.028;2023-03-13T05:30:27;1.02;;;0.50;;
71503;SDS011;59323;50.874;7.028;2023-03-13T05:32:52;0.57;;;0.33;;
71503;SDS011;59323;50.874;7.028;2023-03-13T05:35:18;1.47;;;0.50;;
71503;SDS011;59323;50.874;7.028;2023-03-13T05:37:43;3.83;;;0.40;;
71503;SDS011;59323;50.874;7.028;2023-03-13T05:40:10;1.53;;;0.40;;
71503;SDS011;59323;50.874;7.028;2023-03-13T05:42:36;1.05;;;0.47;;
71503;SDS011;59323;50.874;7.028;2023-03-13T05:45:01;0.93;;;0.47;;
71503;SDS011;59323;50.874;7.028;2023-03-13T05:47:27;0.90;;;0.60;;
71503;SDS011;59323;50.874;7.028;2023-03-13T05:49:55;1.10;;;0.53;;
71503;SDS011;59323;50.874;7.028;2023-03-13T05:52:21;1.42;;;0.60;;
71503;SDS011;59323;50.874;7.028;2023-03-13T05:54:46;0.90;;;0.60;;
71503;SDS011;59323;50.874;7.028;2023-03-13T05:57:12;1.23;;;0.70;;
71503;SDS011;59323;50.874;7.028;2023-03-13T05:59:37;1.60;;;0.60;;
71503;SDS011;59323;50.874;7.028;2023-03-13T06:02:03;2.47;;;0.80;;
71503;SDS011;59323;50.874;7.028;2023-03-13T06:04:28;3.47;;;0.90;;
71503;SDS011;59323;50.874;7.028;2023-03-13T06:06:53;2.23;;;0.70;;
71503;SDS011;59323;50.874;7.028;2023-03-13T06:09:19;2.00;;;0.80;;
71503;SDS011;59323;50.874;7.028;2023-03-13T06:11:44;1.00;;;0.50;;
71503;SDS011;59323;50.874;7.028;2023-03-13T06:14:10;1.07;;;0.50;;
71503;SDS011;59323;50.874;7.028;2023-03-13T06:16:35;0.90;;;0.50;;
71503;SDS011;59323;50.874;7.028;2023-03-13T06:19:00;3.13;;;0.67;;
71503;SDS011;59323;50.874;7.028;2023-03-13T06:21:26;1.37;;;0.57;;
71503;SDS011;59323;50.874;7.028;2023-03-13T06:23:52;0.65;;;0.40;;
71503;SDS011;59323;50.874;7.028;2023-03-13T06:26:18;1.00;;;0.40;;
71503;SDS011;59323;50.874;7.028;2023-03-13T06:28:44;1.40;;;0.40;;
71503;SDS011;59323;50.874;7.028;2023-03-13T06:31:09;0.80;;;0.30;;
71503;SDS011;59323;50.874;7.028;2023-03-13T06:33:35;1.00;;;0.50;;
71503;SDS011;59323;50.874;7.028;2023-03-13T06:36:01;0.98;;;0.50;;
71503;SDS011;59323;50.874;7.028;2023-03-13T06:38:27;1.58;;;0.55;;
71503;SDS011;59323;50.874;7.028;2023-03-13T06:40:53;2.67;;;0.57;;
71503;SDS011;59323;50.874;7.028;2023-03-13T06:43:19;1.23;;;0.60;;
71503;SDS011;59323;50.874;7.028;2023-03-13T06:45:44;2.80;;;0.77;;
71503;SDS011;59323;50.874;7.028;2023-03-13T06:48:10;2.00;;;0.73;;
71503;SDS011;59323;50.874;7.028;2023-03-13T06:50:39;2.60;;;0.70;;
71503;SDS011;59323;50.874;7.028;2023-03-13T06:53:05;1.63;;;0.73;;
71503;SDS011;59323;50.874;7.028;2023-03-13T06:55:31;2.53;;;0.82;;
71503;SDS011;59323;50.874;7.028;2023-03-13T06:57:57;2.97;;;1.00;;
71503;SDS011;59323;50.874;7.028;2023-03-13T07:00:22;3.35;;;0.90;;
71503;SDS011;59323;50.874;7.028;2023-03-13T07:02:49;2.43;;;1.20;;
71503;SDS011;59323;50.874;7.028;2023-03-13T07:05:15;3.80;;;1.35;;
71503;SDS011;59323;50.874;7.028;2023-03-13T07:07:41;2.13;;;0.80;;
71503;SDS011;59323;50.874;7.028;2023-03-13T07:10:07;3.37;;;1.07;;
71503;SDS011;59323;50.874;7.028;2023-03-13T07:12:34;3.90;;;1.23;;
71503;SDS011;59323;50.874;7.028;2023-03-13T07:15:00;2.97;;;1.20;;
71503;SDS011;59323;50.874;7.028;2023-03-13T07:17:25;4.93;;;1.00;;
71503;SDS011;59323;50.874;7.028;2023-03-13T07:19:50;3.10;;;1.20;;
71503;SDS011;59323;50.874;7.028;2023-03-13T07:22:16;2.97;;;1.27;;
71503;SDS011;59323;50.874;7.028;2023-03-13T07:24:41;2.07;;;1.10;;
71503;SDS011;59323;50.874;7.028;2023-03-13T07:27:06;2.78;;;1.00;;
71503;SDS011;59323;50.874;7.028;2023-03-13T07:29:32;5.50;;;1.37;;
71503;SDS011;59323;50.874;7.028;2023-03-13T07:31:57;5.60;;;1.07;;
71503;SDS011;59323;50.874;7.028;2023-03-13T07:34:22;4.53;;;1.37;;
71503;SDS011;59323;50.874;7.028;2023-03-13T07:36:48;6.97;;;1.50;;
71503;SDS011;59323;50.874;7.028;2023-03-13T07:39:13;6.53;;;1.80;;
71503;SDS011;59323;50.874;7.028;2023-03-13T07:41:38;5.07;;;2.07;;
71503;SDS011;59323;50.874;7.028;2023-03-13T07:44:04;6.87;;;2.40;;
71503;SDS011;59323;50.874;7.028;2023-03-13T07:46:29;4.23;;;2.10;;
71503;SDS011;59323;50.874;7.028;2023-03-13T07:48:54;6.27;;;2.67;;
71503;SDS011;59323;50.874;7.028;2023-03-13T07:51:21;4.33;;;1.70;;
71503;SDS011;59323;50.874;7.028;2023-03-13T07:53:48;4.55;;;1.63;;
71503;SDS011;59323;50.874;7.028;2023-03-13T07:56:15;5.22;;;2.22;;
71503;SDS011;59323;50.874;7.028;2023-03-13T07:58:45;6.40;;;1.60;;
71503;SDS011;59323;50.874;7.028;2023-03-13T08:01:15;4.23;;;1.43;;
71503;SDS011;59323;50.874;7.028;2023-03-13T08:03:43;4.30;;;1.50;;
71503;SDS011;59323;50.874;7.028;2023-03-13T08:06:10;5.47;;;1.85;;
71503;SDS011;59323;50.874;7.028;2023-03-13T08:08:38;5.82;;;1.70;;
71503;SDS011;59323;50.874;7.028;2023-03-13T08:11:05;6.32;;;1.92;;
71503;SDS011;59323;50.874;7.028;2023-03-13T08:13:32;5.03;;;1.47;;
71503;SDS011;59323;50.874;7.028;2023-03-13T08:16:02;6.15;;;1.20;;
71503;SDS011;59323;50.874;7.028;2023-03-13T08:18:29;6.40;;;1.65;;
71503;SDS011;59323;50.874;7.028;2023-03-13T08:20:59;6.53;;;1.88;;
71503;SDS011;59323;50.874;7.028;2023-03-13T08:23:26;5.00;;;1.83;;
71503;SDS011;59323;50.874;7.028;2023-03-13T08:25:52;4.87;;;1.20;;
71503;SDS011;59323;50.874;7.028;2023-03-13T08:28:17;5.53;;;1.57;;
71503;SDS011;59323;50.874;7.028;2023-03-13T08:30:43;6.10;;;2.10;;
71503;SDS011;59323;50.874;7.028;2023-03-13T08:33:08;4.77;;;1.73;;
71503;SDS011;59323;50.874;7.028;2023-03-13T08:35:33;5.40;;;2.00;;
71503;SDS011;59323;50.874;7.028;2023-03-13T08:37:58;7.33;;;2.20;;
71503;SDS011;59323;50.874;7.028;2023-03-13T08:40:24;6.93;;;1.97;;
71503;SDS011;59323;50.874;7.028;2023-03-13T08:42:49;5.43;;;1.67;;
71503;SDS011;59323;50.874;7.028;2023-03-13T08:45:15;7.00;;;1.80;;
71503;SDS011;59323;50.874;7.028;2023-03-13T08:47:40;7.28;;;2.17;;
71503;SDS011;59323;50.874;7.028;2023-03-13T08:50:05;6.87;;;1.73;;
71503;SDS011;59323;50.874;7.028;2023-03-13T08:52:31;6.40;;;1.57;;
71503;SDS011;59323;50.874;7.028;2023-03-13T08:54:56;4.17;;;1.53;;
71503;SDS011;59323;50.874;7.028;2023-03-13T08:57:22;8.27;;;1.90;;
71503;SDS011;59323;50.874;7.028;2023-03-13T08:59:47;6.57;;;1.63;;
71503;SDS011;59323;50.874;7.028;2023-03-13T09:02:13;5.88;;;2.17;;
71503;SDS011;59323;50.874;7.028;2023-03-13T09:04:43;6.07;;;1.80;;
71503;SDS011;59323;50.874;7.028;2023-03-13T09:07:09;8.60;;;2.42;;
71503;SDS011;59323;50.874;7.028;2023-03-13T09:09:38;6.00;;;1.90;;
71503;SDS011;59323;50.874;7.028;2023-03-13T09:12:03;6.57;;;1.60;;
71503;SDS011;59323;50.874;7.028;2023-03-13T09:14:28;6.03;;;1.63;;
71503;SDS011;59323;50.874;7.028;2023-03-13T09:16:54;6.78;;;1.98;;
71503;SDS011;59323;50.874;7.028;2023-03-13T09:19:20;8.27;;;1.92;;
71503;SDS011;59323;50.874;7.028;2023-03-13T09:21:45;9.30;;;2.07;;
71503;SDS011;59323;50.874;7.028;2023-03-13T09:24:13;7.82;;;1.70;;
71503;SDS011;59323;50.874;7.028;2023-03-13T09:26:38;4.17;;;1.57;;
71503;SDS011;59323;50.874;7.028;2023-03-13T09:29:04;6.50;;;1.80;;
71503;SDS011;59323;50.874;7.028;2023-03-13T09:31:30;6.13;;;1.63;;
71503;SDS011;59323;50.874;7.028;2023-03-13T09:33:57;4.70;;;1.63;;
71503;SDS011;59323;50.874;7.028;2023-03-13T09:36:26;5.55;;;1.40;;
71503;SDS011;59323;50.874;7.028;2023-03-13T09:38:53;6.55;;;1.70;;
71503;SDS011;59323;50.874;7.028;2023-03-13T09:44:12;5.30;;;1.48;;
71503;SDS011;59323;50.874;7.028;2023-03-13T09:52:26;3.65;;;1.33;;
71503;SDS011;59323;50.874;7.028;2023-03-13T09:57:32;4.90;;;1.30;;
71503;SDS011;59323;50.874;7.028;2023-03-13T10:00:01;4.90;;;1.42;;
71503;SDS011;59323;50.874;7.028;2023-03-13T10:02:36;7.43;;;1.35;;
71503;SDS011;59323;50.874;7.028;2023-03-13T10:05:35;3.28;;;1.30;;
71503;SDS011;59323;50.874;7.028;2023-03-13T10:08:12;2.97;;;1.40;;
71503;SDS011;59323;50.874;7.028;2023-03-13T10:10:42;2.80;;;1.15;;
71503;SDS011;59323;50.874;7.028;2023-03-13T10:13:21;2.85;;;1.20;;
71503;SDS011;59323;50.874;7.028;2023-03-13T10:15:53;4.43;;;1.35;;
71503;SDS011;59323;50.874;7.028;2023-03-13T10:18:22;4.65;;;1.23;;
71503;SDS011;59323;50.874;7.028;2023-03-13T10:20:50;2.20;;;1.00;;
71503;SDS011;59323;50.874;7.028;2023-03-13T10:23:19;4.50;;;1.17;;
71503;SDS011;59323;50.874;7.028;2023-03-13T10:25:51;2.85;;;1.10;;
71503;SDS011;59323;50.874;7.028;2023-03-13T10:28:17;4.23;;;1.50;;
71503;SDS011;59323;50.874;7.028;2023-03-13T10:30:50;4.95;;;1.30;;
71503;SDS011;59323;50.874;7.028;2023-03-13T10:33:23;3.55;;;1.77;;
71503;SDS011;59323;50.874;7.028;2023-03-13T10:36:04;4.15;;;1.13;;
71503;SDS011;59323;50.874;7.028;2023-03-13T10:38:32;3.00;;;1.40;;
71503;SDS011;59323;50.874;7.028;2023-03-13T10:41:00;3.73;;;1.10;;
71503;SDS011;59323;50.874;7.028;2023-03-13T10:43:53;4.03;;;1.10;;
71503;SDS011;59323;50.874;7.028;2023-03-13T10:46:23;3.53;;;1.27;;
71503;SDS011;59323;50.874;7.028;2023-03-13T10:48:52;3.33;;;0.90;;
71503;SDS011;59323;50.874;7.028;2023-03-13T10:51:21;4.47;;;1.48;;
71503;SDS011;59323;50.874;7.028;2023-03-13T10:53:49;4.73;;;1.33;;
71503;SDS011;59323;50.874;7.028;2023-03-13T10:56:18;3.30;;;1.02;;
71503;SDS011;59323;50.874;7.028;2023-03-13T10:58:52;2.92;;;1.10;;
71503;SDS011;59323;50.874;7.028;2023-03-13T11:01:27;5.33;;;0.87;;
71503;SDS011;59323;50.874;7.028;2023-03-13T11:03:57;2.75;;;0.85;;
71503;SDS011;59323;50.874;7.028;2023-03-13T11:06:34;3.88;;;1.30;;
71503;SDS011;59323;50.874;7.028;2023-03-13T11:14:14;3.17;;;0.80;;
71503;SDS011;59323;50.874;7.028;2023-03-13T11:16:59;2.00;;;1.20;;
71503;SDS011;59323;50.874;7.028;2023-03-13T11:19:33;2.13;;;0.88;;
71503;SDS011;59323;50.874;7.028;2023-03-13T11:22:16;3.20;;;1.00;;
71503;SDS011;59323;50.874;7.028;2023-03-13T11:24:56;2.13;;;0.70;;
71503;SDS011;59323;50.874;7.028;2023-03-13T11:32:49;1.55;;;0.73;;
71503;SDS011;59323;50.874;7.028;2023-03-13T11:37:53;1.30;;;0.50;;
71503;SDS011;59323;50.874;7.028;2023-03-13T11:40:22;0.95;;;0.65;;
71503;SDS011;59323;50.874;7.028;2023-03-13T11:51:02;2.67;;;0.63;;
71503;SDS011;59323;50.874;7.028;2023-03-13T11:56:43;0.90;;;0.70;;
71503;SDS011;59323;50.874;7.028;2023-03-13T12:04:53;1.03;;;0.57;;
71503;SDS011;59323;50.874;7.028;2023-03-13T12:07:25;2.08;;;0.90;;
71503;SDS011;59323;50.874;7.028;2023-03-13T12:09:58;1.00;;;0.55;;
71503;SDS011;59323;50.874;7.028;2023-03-13T12:12:30;1.98;;;0.55;;
71503;SDS011;59323;50.874;7.028;2023-03-13T12:17:39;1.30;;;0.40;;
71503;SDS011;59323;50.874;7.028;2023-03-13T12:20:21;5.68;;;0.77;;
71503;SDS011;59323;50.874;7.028;2023-03-13T12:25:59;1.17;;;0.70;;
71503;SDS011;59323;50.874;7.028;2023-03-13T12:42:18;2.28;;;0.85;;
71503;SDS011;59323;50.874;7.028;2023-03-13T12:45:05;2.07;;;1.00;;
71503;SDS011;59323;50.874;7.028;2023-03-13T12:53:01;1.17;;;0.77;;
71503;SDS011;59323;50.874;7.028;2023-03-13T12:58:50;3.70;;;1.00;;
71503;SDS011;59323;50.874;7.028;2023-03-13T13:03:49;1.77;;;0.80;;
71503;SDS011;59323;50.874;7.028;2023-03-13T13:06:19;3.03;;;1.05;;
71503;SDS011;59323;50.874;7.028;2023-03-13T13:16:41;1.48;;;0.65;;
71503;SDS011;59323;50.874;7.028;2023-03-13T13:24:56;4.90;;;0.93;;
71503;SDS011;59323;50.874;7.028;2023-03-13T13:29:57;2.20;;;0.90;;
71503;SDS011;59323;50.874;7.028;2023-03-13T13:32:28;2.20;;;0.80;;
71503;SDS011;59323;50.874;7.028;2023-03-13T13:35:17;1.93;;;1.20;;
71503;SDS011;59323;50.874;7.028;2023-03-13T13:37:48;1.63;;;0.80;;
71503;SDS011;59323;50.874;7.028;2023-03-13T13:42:56;3.40;;;1.27;;
71503;SDS011;59323;50.874;7.028;2023-03-13T13:47:49;1.75;;;0.80;;
71503;SDS011;59323;50.874;7.028;2023-03-13T13:52:47;2.53;;;1.02;;
71503;SDS011;59323;50.874;7.028;2023-03-13T13:55:30;1.90;;;1.07;;
71503;SDS011;59323;50.874;7.028;2023-03-13T13:58:10;1.83;;;0.70;;
71503;SDS011;59323;50.874;7.028;2023-03-13T14:00:38;2.58;;;1.10;;
71503;SDS011;59323;50.874;7.028;2023-03-13T14:03:15;1.65;;;0.85;;
71503;SDS011;59323;50.874;7.028;2023-03-13T14:05:55;2.45;;;1.10;;
71503;SDS011;59323;50.874;7.028;2023-03-13T14:08:32;3.10;;;0.70;;
71503;SDS011;59323;50.874;7.028;2023-03-13T14:11:08;1.90;;;1.13;;
71503;SDS011;59323;50.874;7.028;2023-03-13T14:16:38;2.42;;;0.73;;
71503;SDS011;59323;50.874;7.028;2023-03-13T14:19:19;3.72;;;0.80;;
71503;SDS011;59323;50.874;7.028;2023-03-13T14:21:46;3.53;;;1.03;;
71503;SDS011;59323;50.874;7.028;2023-03-13T14:24:14;2.30;;;0.93;;
71503;SDS011;59323;50.874;7.028;2023-03-13T14:26:41;1.87;;;1.00;;
71503;SDS011;59323;50.874;7.028;2023-03-13T14:29:14;1.95;;;1.10;;
71503;SDS011;59323;50.874;7.028;2023-03-13T14:31:40;2.17;;;0.88;;
71503;SDS011;59323;50.874;7.028;2023-03-13T14:34:07;2.83;;;0.90;;
71503;SDS011;59323;50.874;7.028;2023-03-13T14:36:48;1.70;;;0.50;;
71503;SDS011;59323;50.874;7.028;2023-03-13T14:42:16;5.10;;;1.48;;
71503;SDS011;59323;50.874;7.028;2023-03-13T14:44:43;4.93;;;0.80;;
71503;SDS011;59323;50.874;7.028;2023-03-13T14:47:29;3.25;;;0.80;;
71503;SDS011;59323;50.874;7.028;2023-03-13T14:49:59;1.42;;;0.77;;
71503;SDS011;59323;50.874;7.028;2023-03-13T14:52:28;2.03;;;0.90;;
71503;SDS011;59323;50.874;7.028;2023-03-13T14:54:56;1.33;;;0.65;;
71503;SDS011;59323;50.874;7.028;2023-03-13T14:57:28;1.97;;;0.90;;
71503;SDS011;59323;50.874;7.028;2023-03-13T14:59:54;1.50;;;0.43;;
71503;SDS011;59323;50.874;7.028;2023-03-13T15:02:40;4.10;;;0.70;;
71503;SDS011;59323;50.874;7.028;2023-03-13T15:05:28;1.70;;;0.63;;
71503;SDS011;59323;50.874;7.028;2023-03-13T15:07:56;2.28;;;0.73;;
71503;SDS011;59323;50.874;7.028;2023-03-13T15:10:30;1.60;;;0.90;;
71503;SDS011;59323;50.874;7.028;2023-03-13T15:12:57;1.02;;;0.60;;
71503;SDS011;59323;50.874;7.028;2023-03-13T15:15:23;1.90;;;0.70;;
71503;SDS011;59323;50.874;7.028;2023-03-13T15:17:48;1.83;;;0.90;;
71503;SDS011;59323;50.874;7.028;2023-03-13T15:20:14;3.33;;;0.87;;
71503;SDS011;59323;50.874;7.028;2023-03-13T15:22:41;1.73;;;0.60;;
71503;SDS011;59323;50.874;7.028;2023-03-13T15:25:15;1.42;;;0.85;;
71503;SDS011;59323;50.874;7.028;2023-03-13T15:27:44;3.10;;;0.80;;
71503;SDS011;59323;50.874;7.028;2023-03-13T15:30:28;3.80;;;1.20;;
71503;SDS011;59323;50.874;7.028;2023-03-13T15:32:54;1.50;;;0.70;;
71503;SDS011;59323;50.874;7.028;2023-03-13T15:37:51;2.40;;;0.45;;
71503;SDS011;59323;50.874;7.028;2023-03-13T15:40:16;1.43;;;0.70;;
71503;SDS011;59323;50.874;7.028;2023-03-13T15:42:42;2.15;;;0.50;;
71503;SDS011;59323;50.874;7.028;2023-03-13T15:45:08;1.30;;;0.50;;
71503;SDS011;59323;50.874;7.028;2023-03-13T15:47:33;1.15;;;0.50;;
71503;SDS011;59323;50.874;7.028;2023-03-13T15:49:59;1.90;;;0.60;;
71503;SDS011;59323;50.874;7.028;2023-03-13T15:52:24;2.70;;;0.70;;
71503;SDS011;59323;50.874;7.028;2023-03-13T15:54:50;2.93;;;0.80;;
71503;SDS011;59323;50.874;7.028;2023-03-13T15:57:17;2.05;;;0.90;;
71503;SDS011;59323;50.874;7.028;2023-03-13T15:59:46;1.65;;;0.82;;
71503;SDS011;59323;50.874;7.028;2023-03-13T16:02:22;3.47;;;1.30;;
71503;SDS011;59323;50.874;7.028;2023-03-13T16:04:48;2.20;;;0.70;;
71503;SDS011;59323;50.874;7.028;2023-03-13T16:07:15;1.90;;;0.73;;
71503;SDS011;59323;50.874;7.028;2023-03-13T16:09:43;1.75;;;0.52;;
71503;SDS011;59323;50.874;7.028;2023-03-13T16:12:09;2.57;;;1.00;;
71503;SDS011;59323;50.874;7.028;2023-03-13T16:14:35;3.05;;;1.13;;
71503;SDS011;59323;50.874;7.028;2023-03-13T16:17:02;2.22;;;1.00;;
71503;SDS011;59323;50.874;7.028;2023-03-13T16:19:28;3.78;;;0.93;;
71503;SDS011;59323;50.874;7.028;2023-03-13T16:21:54;2.47;;;1.07;;
71503;SDS011;59323;50.874;7.028;2023-03-13T16:24:20;2.67;;;0.70;;
71503;SDS011;59323;50.874;7.028;2023-03-13T16:26:45;3.77;;;1.37;;
71503;SDS011;59323;50.874;7.028;2023-03-13T16:29:12;3.95;;;0.90;;
71503;SDS011;59323;50.874;7.028;2023-03-13T16:31:39;2.30;;;0.80;;
71503;SDS011;59323;50.874;7.028;2023-03-13T16:34:05;2.10;;;0.90;;
71503;SDS011;59323;50.874;7.028;2023-03-13T16:36:32;3.10;;;0.80;;
71503;SDS011;59323;50.874;7.028;2023-03-13T16:38:58;3.92;;;1.20;;
71503;SDS011;59323;50.874;7.028;2023-03-13T16:41:25;4.00;;;1.00;;
71503;SDS011;59323;50.874;7.028;2023-03-13T16:43:52;3.27;;;0.70;;
71503;SDS011;59323;50.874;7.028;2023-03-13T16:46:18;3.10;;;0.98;;
71503;SDS011;59323;50.874;7.028;2023-03-13T16:48:46;5.72;;;1.40;;
71503;SDS011;59323;50.874;7.028;2023-03-13T16:51:16;6.55;;;1.02;;
71503;SDS011;59323;50.874;7.028;2023-03-13T16:53:44;4.93;;;1.40;;
71503;SDS011;59323;50.874;7.028;2023-03-13T16:56:25;4.03;;;1.20;;